METAR / TAF
Helsinki-Vantaa
HELSINKI/VANTAA
Metar
EFHK 231920Z 21005KT 9999 FEW015 BKN020 10/08 Q1013 NOSIG

19:20 UTC

Wind: 210° 5kt

Visibility: 9999 m

Sky: FEW 1500 ft

Temp: 10 deg C / 50 deg F

Dewpoint: 8 deg C / 46.4 deg F

Pressure: 1013 hPa

TAF
TAF EFHK 231722Z 2318/2418 23007KT 9999 BKN020 TEMPO 2318/2322 BKN012
Helsinki, Malmi
HELSINKI/MALMI
Turku
TURKU/ABO
Metar
EFTU 231920Z AUTO 21005KT 9999 OVC019 10/08 Q1012

19:20 UTC

Wind: 210° 5kt

Visibility: 9999 m

Sky: OVC 1900 ft

Temp: 10 deg C / 50 deg F

Dewpoint: 8 deg C / 46.4 deg F

Pressure: 1012 hPa

TAF
TAF EFTU 231722Z 2318/2418 21008KT 9999 BKN020
Tampere, Pirkkala
TAMPERE/PIRKKALA
Metar
EFTP 231920Z AUTO 20006KT 9999 SCT013 OVC016 08/06 Q1012

19:20 UTC

Wind: 200° 6kt

Visibility: 9999 m

Sky: SCT 1300 ft

Temp: 8 deg C / 46.4 deg F

Dewpoint: 6 deg C / 42.8 deg F

Pressure: 1012 hPa

TAF
TAF EFTP 231722Z 2318/2418 20006KT 9999 SCT020 BKN100 TEMPO 2318/2401 BKN008 PROB30 TEMPO 2320/2401 3000 BR BKN004
Maarianhamina
MARIEHAMN/ALAND
Metar
EFMA 231920Z AUTO 22008KT 180V250 9999 BKN034 10/06 Q1012

19:20 UTC

Wind: 220° 8kt

Visibility: 9999 m

Sky: BKN 3400 ft

Temp: 10 deg C / 50 deg F

Dewpoint: 6 deg C / 42.8 deg F

Pressure: 1012 hPa

TAF
TAF EFMA 231722Z 2318/2403 24007KT 9999 BKN020
Pori
PORI (MIL/CIV)
Metar
EFPO 231920Z AUTO 19004KT 9999 FEW012/// OVC025/// 09/07 Q1011

19:20 UTC

Wind: 190° 4kt

Visibility: 9999 m

Sky: FEW 1200 ft

Temp: 9 deg C / 48.2 deg F

Dewpoint: 7 deg C / 44.6 deg F

Pressure: 1011 hPa

TAF
TAF EFPO 231722Z 2318/2323 21005KT 9999 FEW012 BKN020 TEMPO 2318/2321 BKN007
Vaasa
VAASA
Metar
EFVA 231920Z AUTO 15003KT 9999 OVC005 04/03 Q1009

19:20 UTC

Wind: 150° 3kt

Visibility: 9999 m

Sky: OVC 500 ft

Temp: 4 deg C / 39.2 deg F

Dewpoint: 3 deg C / 37.4 deg F

Pressure: 1009 hPa

TAF
TAF EFVA 231737Z 2318/2418 24006KT CAVOK BECMG 2318/2320 3000 BR BKN003 TEMPO 2320/2401 0500 FG VV001 BECMG 2401/2403 BKN010 BECMG 2406/2408 23016KT BKN015 TEMPO 2408/2415 23016G26KT
Kruunupyy
KRUUNUPYY
Metar
EFKK 231920Z AUTO 15003KT CAVOK 01/01 Q1009

19:20 UTC

Wind: 150° 3kt

Visibility:

Sky:

Temp: 1 deg C / 33.8 deg F

Dewpoint: 1 deg C / 33.8 deg F

Pressure: 1009 hPa

TAF
TAF EFKK 231737Z 2318/2323 19005KT CAVOK BECMG 2319/2321 0800 FG OVC002
Jyväskylä, Tikkakoski
JYVASKYLA (MIL/C
Metar
EFJY 231920Z AUTO 19003KT CAVOK 04/02 Q1011

19:20 UTC

Wind: 190° 3kt

Visibility:

Sky:

Temp: 4 deg C / 39.2 deg F

Dewpoint: 2 deg C / 35.6 deg F

Pressure: 1011 hPa

TAF
TAF EFJY 231722Z 2318/2418 23006KT CAVOK BECMG 2320/2322 BKN008 TEMPO 2322/2405 2500 BR BKN003 PROB30 TEMPO 2323/2405 0900 FG VV001 BECMG 2405/2407 BKN015
Kuopio
KUOPIO (MIL/CIV)
Metar
EFKU 231920Z AUTO 24007KT CAVOK 05/02 Q1011

19:20 UTC

Wind: 240° 7kt

Visibility:

Sky:

Temp: 5 deg C / 41 deg F

Dewpoint: 2 deg C / 35.6 deg F

Pressure: 1011 hPa

TAF
TAF EFKU 231737Z 2318/2418 23005KT CAVOK BECMG 2400/2402 BKN007 TEMPO 2402/2407 4000 -RADZ BKN004 BECMG 2407/2409 BKN013 BECMG 2409/2411 BKN020
Joensuu
JOENSUU
Metar
EFJO 231920Z 26005KT 230V290 CAVOK 04/02 Q1010

19:20 UTC

Wind: 260° 5kt

Visibility:

Sky:

Temp: 4 deg C / 39.2 deg F

Dewpoint: 2 deg C / 35.6 deg F

Pressure: 1010 hPa

TAF
TAF EFJO 231737Z 2318/2323 26005KT CAVOK TEMPO 2322/2323 3000 BR
Halli
HALLI (FIN-AFB)
Metar
EFHA 231920Z AUTO 20006KT 9999 SCT016 BKN034 06/04 Q1011

19:20 UTC

Wind: 200° 6kt

Visibility: 9999 m

Sky: SCT 1600 ft

Temp: 6 deg C / 42.8 deg F

Dewpoint: 4 deg C / 39.2 deg F

Pressure: 1011 hPa

Utti
UTTI (FIN-AFB)
Metar
EFUT 231920Z AUTO 21004KT CAVOK 07/06 Q1013

19:20 UTC

Wind: 210° 4kt

Visibility:

Sky:

Temp: 7 deg C / 44.6 deg F

Dewpoint: 6 deg C / 42.8 deg F

Pressure: 1013 hPa

Mikkeli
MIKKELI
Metar
EFMI 231920Z AUTO 22003KT CAVOK 07/06 Q1012

19:20 UTC

Wind: 220° 3kt

Visibility:

Sky:

Temp: 7 deg C / 44.6 deg F

Dewpoint: 6 deg C / 42.8 deg F

Pressure: 1012 hPa

Savonlinna
SAVONLINNA (AUT)
Metar
EFSA 231920Z AUTO 24004KT 180V270 CAVOK 06/03 Q1012

19:20 UTC

Wind: 240° 4kt

Visibility:

Sky:

Temp: 6 deg C / 42.8 deg F

Dewpoint: 3 deg C / 37.4 deg F

Pressure: 1012 hPa

TAF
TAF EFSA 231423Z 2315/2319 24006KT CAVOK
Lappeenranta
LAPPEENRANTA
Metar
EFLP 231920Z 21003KT CAVOK 07/05 Q1013

19:20 UTC

Wind: 210° 3kt

Visibility:

Sky:

Temp: 7 deg C / 44.6 deg F

Dewpoint: 5 deg C / 41 deg F

Pressure: 1013 hPa

TAF
TAF EFLP 231737Z 2318/2322 22006KT CAVOK TEMPO 2320/2322 2000 BR BKN006
Oulu
OULU/ULEABORG
Metar
EFOU 231920Z AUTO 21005KT CAVOK 03/02 Q1007

19:20 UTC

Wind: 210° 5kt

Visibility:

Sky:

Temp: 3 deg C / 37.4 deg F

Dewpoint: 2 deg C / 35.6 deg F

Pressure: 1007 hPa

TAF
TAF EFOU 231737Z 2318/2418 25006KT CAVOK TEMPO 2401/2407 2000 DZRA BKN004 BECMG 2407/2409 14010KT 5000 RA OVC004 BECMG 2410/2412 22012KT 9999 NSW BKN013
Kemi
KEMI
Metar
EFKE 231920Z AUTO 23002KT CAVOK M04/M04 Q1006

19:20 UTC

Wind: 230° 2kt

Visibility:

Sky:

Temp: -4 deg C / 24.8 deg F

Dewpoint: -4 deg C / 24.8 deg F

Pressure: 1006 hPa

TAF
TAF EFKE 231421Z 2315/2318 20006KT CAVOK
Rovaniemi
ROVANIEMI (CIV/M
Metar
EFRO 231920Z AUTO 21002KT 0400 R21/0550 FZFG VV001 M02/M02 Q1004

19:20 UTC

Wind: 210° 2kt

Visibility: 400 m

Sky: VV 100 ft

Temp: -2 deg C / 28.4 deg F

Dewpoint: -2 deg C / 28.4 deg F

Pressure: 1004 hPa

TAF
TAF EFRO 231737Z 2318/2418 23005KT 0500 FZFG VV001 BECMG 2404/2406 4000 -SN BKN003 TEMPO 2407/2413 1500 SN VV007 BECMG 2413/2415 7000 -RA BKN004 BECMG 2416/2418 0800 FG VV001
Enontekiö
ENONTEKIO
Metar
EFET 231920Z AUTO 19003KT CAVOK M08/M09 Q1002

19:20 UTC

Wind: 190° 3kt

Visibility:

Sky:

Temp: -8 deg C / 17.6 deg F

Dewpoint: -9 deg C / 15.8 deg F

Pressure: 1002 hPa

Ivalo
IVALO
Metar
EFIV 231920Z AUTO 21008KT 9999 -SN FEW015 OVC036 M01/M02 Q1001

19:20 UTC

Wind: 210° 8kt

Visibility: 9999 m

Sky: FEW 1500 ft

Temp: -1 deg C / 30.2 deg F

Dewpoint: -2 deg C / 28.4 deg F

Pressure: 1001 hPa

TAF
TAF EFIV 231130Z 2312/2316 13004KT 9999 BKN030 TEMPO 2312/2316 2000 -SN BKN007
Kittilä
KITTILA
Metar
EFKT 231920Z AUTO 19003KT 9999 BCFG SCT004 M04/M04 Q1003

19:20 UTC

Wind: 190° 3kt

Visibility: 9999 m

Sky: SCT 400 ft

Temp: -4 deg C / 24.8 deg F

Dewpoint: -4 deg C / 24.8 deg F

Pressure: 1003 hPa

TAF
TAF EFKT 231421Z 2315/2317 22006KT 9999 OVC011 TEMPO 2315/2317 BKN008
Kuusamo
KUUSAMO
Metar
EFKS 231920Z AUTO 28011KT 250V310 9999 OVC006 01/00 Q1004

19:20 UTC

Wind: 280° 11kt

Visibility: 9999 m

Sky: OVC 600 ft

Temp: 1 deg C / 33.8 deg F

Dewpoint: 0 deg C / 32 deg F

Pressure: 1004 hPa

Kajaani
KAJAANI
Metar
EFKI 231920Z 23006KT 200V260 CAVOK 03/01 Q1008

19:20 UTC

Wind: 230° 6kt

Visibility:

Sky:

Temp: 3 deg C / 37.4 deg F

Dewpoint: 1 deg C / 33.8 deg F

Pressure: 1008 hPa

TAF
TAF EFKI 231737Z 2318/2321 24009KT CAVOK
Varkaus
VARKAUS
Seinäjoki
SEINAJOKI-ILMAJO
Metar
EFSI 231920Z AUTO 14003KT 9999 BKN008 OVC010 03/03 Q1009

19:20 UTC

Wind: 140° 3kt

Visibility: 9999 m

Sky: BKN 800 ft

Temp: 3 deg C / 37.4 deg F

Dewpoint: 3 deg C / 37.4 deg F

Pressure: 1009 hPa

Print Friendly, PDF & Email